Time;durP1;ratioP1;P1;durP2;ratioP2;P2;SDS_P1;SDS_P2;PMS_P1;PMS_P2;Temp;Humidity;BMP_temperature;BMP_pressure;BME280_temperature;BME280_humidity;BME280_pressure;Samples;Min_cycle;Max_cycle;Signal;HPM_P1;HPM_P2
2022/03/26 00:00:43;;;;;;;;;26.33;25.00;;;;;12.95;42.55;99875.50;5065917;28;45313;-62
2022/03/26 00:03:08;;;;;;;;;22.67;19.33;;;;;12.92;41.86;99870.31;5072195;27;46465;-62
2022/03/26 00:05:34;;;;;;;;;20.33;16.00;;;;;12.86;41.94;99868.78;5067930;27;45412;-62
2022/03/26 00:08:00;;;;;;;;;22.00;21.33;;;;;12.81;41.93;99867.22;5073370;28;45474;-62
2022/03/26 00:10:25;;;;;;;;;23.00;21.00;;;;;12.77;42.05;99877.06;5073007;28;45748;-62
2022/03/26 00:12:52;;;;;;;;;22.33;19.67;;;;;12.74;42.38;99873.66;5077282;28;46507;-63
2022/03/26 00:15:19;;;;;;;;;21.67;19.67;;;;;12.72;42.31;99873.72;5072751;28;45321;-62
2022/03/26 00:18:17;;;;;;;;;24.00;24.00;;;;;12.72;42.51;99870.22;5075410;27;45395;-60
2022/03/26 00:20:43;;;;;;;;;24.33;21.00;;;;;12.70;43.41;99872.06;5075752;28;45813;-62
2022/03/26 00:23:09;;;;;;;;;27.67;25.67;;;;;12.65;43.47;99874.88;5074708;28;45554;-62
2022/03/26 00:25:34;;;;;;;;;26.00;23.33;;;;;12.63;43.78;99875.84;5070726;28;45439;-62
2022/03/26 00:28:00;;;;;;;;;30.33;25.33;;;;;12.58;43.76;99870.69;5076279;28;45470;-62
2022/03/26 00:30:25;;;;;;;;;25.33;23.67;;;;;12.54;44.01;99869.97;5070262;28;45577;-62
2022/03/26 00:32:51;;;;;;;;;28.67;25.67;;;;;12.54;43.64;99877.06;5075789;28;47139;-62
2022/03/26 00:35:16;;;;;;;;;24.67;21.33;;;;;12.51;43.68;99867.44;5074348;28;45316;-62
2022/03/26 00:37:42;;;;;;;;;24.67;21.00;;;;;12.48;43.79;99867.53;5075095;28;45475;-62
2022/03/26 00:40:08;;;;;;;;;26.33;21.67;;;;;12.47;44.34;99872.88;5072249;28;45404;-62
2022/03/26 00:42:34;;;;;;;;;27.33;21.67;;;;;12.44;44.33;99873.84;5067920;28;45649;-62
2022/03/26 00:44:59;;;;;;;;;24.67;23.67;;;;;12.42;43.87;99867.75;5073003;28;45376;-62
2022/03/26 00:47:25;;;;;;;;;24.67;24.67;;;;;12.40;43.92;99868.75;5077311;28;45198;-62
2022/03/26 00:49:51;;;;;;;;;24.67;21.67;;;;;12.36;44.10;99875.91;5075260;27;45533;-62
2022/03/26 00:52:16;;;;;;;;;26.33;23.33;;;;;12.34;44.09;99875.09;5076438;28;47212;-62
2022/03/26 00:54:42;;;;;;;;;27.00;22.00;;;;;12.31;43.72;99863.78;5066773;28;45246;-62
2022/03/26 00:57:07;;;;;;;;;23.33;22.33;;;;;12.29;44.01;99869.09;5077849;27;45366;-62
2022/03/26 00:59:33;;;;;;;;;22.00;20.33;;;;;12.25;44.12;99864.84;5067206;27;45459;-62
2022/03/26 01:01:58;;;;;;;;;20.33;18.67;;;;;12.20;44.41;99878.25;5077033;27;46163;-62
2022/03/26 01:04:24;;;;;;;;;21.33;21.33;;;;;12.13;44.61;99875.84;5069567;27;45397;-62
2022/03/26 01:06:49;;;;;;;;;22.67;22.67;;;;;12.05;44.75;99878.75;5077598;27;45397;-62
2022/03/26 01:09:15;;;;;;;;;29.33;24.33;;;;;11.98;44.89;99879.88;5069009;28;45521;-61
2022/03/26 01:11:40;;;;;;;;;22.00;20.00;;;;;11.90;44.88;99876.59;5076917;27;45358;-62
2022/03/26 01:14:06;;;;;;;;;21.33;21.33;;;;;11.87;45.09;99879.38;5068533;27;45410;-61
2022/03/26 01:16:32;;;;;;;;;33.33;27.00;;;;;11.86;45.50;99882.94;5077094;27;45759;-61
2022/03/26 01:18:57;;;;;;;;;24.67;22.00;;;;;11.82;45.62;99887.44;5068956;28;45407;-62
2022/03/26 01:21:23;;;;;;;;;24.00;22.67;;;;;11.78;45.80;99885.81;5076873;28;45412;-62
2022/03/26 01:23:49;;;;;;;;;23.67;22.00;;;;;11.73;45.56;99879.78;5070255;27;45423;-61
2022/03/26 01:26:16;;;;;;;;;24.67;21.33;;;;;11.69;45.48;99878.16;5077110;27;45396;-61
2022/03/26 01:28:42;;;;;;;;;24.67;22.33;;;;;11.65;45.92;99881.81;5069653;28;45506;-61
2022/03/26 01:31:07;;;;;;;;;18.33;16.67;;;;;11.61;46.08;99876.69;5076983;27;45417;-62
2022/03/26 01:33:33;;;;;;;;;23.00;22.00;;;;;11.57;45.72;99878.53;5069631;28;45325;-62
2022/03/26 01:35:58;;;;;;;;;25.67;21.33;;;;;11.54;48.21;99876.88;5076760;27;45443;-62
2022/03/26 01:38:24;;;;;;;;;29.00;26.67;;;;;11.49;48.51;99872.66;5070172;28;45881;-62
2022/03/26 01:40:49;;;;;;;;;25.33;22.00;;;;;11.42;48.34;99873.75;5073637;27;46098;-64
2022/03/26 01:43:15;;;;;;;;;28.00;21.33;;;;;11.37;48.09;99875.69;5073462;28;45273;-61
2022/03/26 01:45:40;;;;;;;;;25.33;20.33;;;;;11.33;48.61;99869.63;5072481;28;45470;-61
2022/03/26 01:48:06;;;;;;;;;25.33;25.00;;;;;11.31;49.02;99871.47;5072838;28;45463;-62
2022/03/26 01:50:32;;;;;;;;;30.33;26.67;;;;;11.28;49.05;99882.09;5091977;27;47660;-62
2022/03/26 01:52:58;;;;;;;;;23.00;20.00;;;;;11.24;48.94;99869.03;5073443;28;45492;-62
2022/03/26 01:55:25;;;;;;;;;31.67;25.67;;;;;11.20;49.37;99873.56;5067848;27;45447;-62
2022/03/26 01:57:51;;;;;;;;;24.00;22.33;;;;;11.17;48.54;99868.38;5074096;27;45383;-62
2022/03/26 02:00:17;;;;;;;;;25.33;22.00;;;;;11.14;48.28;99874.63;5084181;27;45443;-62
2022/03/26 02:02:43;;;;;;;;;27.33;19.67;;;;;11.14;49.19;99865.84;5074686;28;45372;-62
2022/03/26 02:05:13;;;;;;;;;26.00;24.00;;;;;11.11;48.49;99864.16;5075982;28;45390;-61
2022/03/26 02:07:40;;;;;;;;;22.33;18.00;;;;;11.10;48.69;99862.41;5075198;28;45474;-61
2022/03/26 02:10:15;;;;;;;;;28.33;23.67;;;;;11.10;47.84;99867.69;5074736;28;45458;-62
2022/03/26 02:12:41;;;;;;;;;23.00;23.00;;;;;11.09;47.87;99867.72;5073654;28;45499;-62
2022/03/26 02:15:08;;;;;;;;;25.00;23.67;;;;;11.09;48.04;99868.59;5075633;28;45446;-61
2022/03/26 02:17:35;;;;;;;;;26.33;23.00;;;;;11.10;47.98;99858.91;5075528;28;45345;-61
2022/03/26 02:20:05;;;;;;;;;24.00;22.00;;;;;11.10;47.78;99862.41;5071021;28;45448;-61
2022/03/26 02:22:31;;;;;;;;;25.67;22.67;;;;;11.10;47.85;99862.41;5075968;28;45245;-61
2022/03/26 02:24:57;;;;;;;;;28.00;20.00;;;;;11.10;47.64;99862.41;5073225;28;45574;-62
2022/03/26 02:27:26;;;;;;;;;24.00;22.67;;;;;11.11;47.49;99864.16;5092016;27;45791;-62
2022/03/26 02:29:52;;;;;;;;;21.67;19.33;;;;;11.11;47.16;99860.63;5068658;28;45438;-61
2022/03/26 02:32:22;;;;;;;;;24.67;22.33;;;;;11.10;47.18;99853.63;5075829;28;45529;-61
2022/03/26 02:34:49;;;;;;;;;29.00;25.00;;;;;11.10;47.53;99854.50;5068929;27;45469;-61
2022/03/26 02:37:16;;;;;;;;;30.00;29.67;;;;;11.09;47.82;99858.03;5075941;28;45412;-61
2022/03/26 02:39:42;;;;;;;;;24.33;21.67;;;;;11.10;47.49;99858.91;5071186;28;46075;-61
2022/03/26 02:42:07;;;;;;;;;30.67;25.67;;;;;11.08;48.09;99860.72;5076065;28;45433;-61
2022/03/26 02:44:33;;;;;;;;;22.67;18.00;;;;;11.05;46.78;99860.84;5071912;28;45517;-61
2022/03/26 02:46:58;;;;;;;;;33.67;26.33;;;;;11.02;47.99;99861.81;5073766;28;45793;-61
2022/03/26 02:49:24;;;;;;;;;20.00;20.00;;;;;10.98;46.95;99862.78;5072277;27;45492;-61
2022/03/26 02:51:50;;;;;;;;;27.33;23.67;;;;;10.95;47.65;99865.53;5075295;28;45495;-61
2022/03/26 02:54:21;;;;;;;;;26.00;23.00;;;;;10.92;46.95;99862.09;5074006;28;45373;-61
2022/03/26 02:56:51;;;;;;;;;17.00;15.33;;;;;10.90;46.48;99863.91;5075555;27;45526;-61
2022/03/26 02:59:17;;;;;;;;;26.33;20.33;;;;;10.89;46.57;99864.84;5058054;28;46434;-61
2022/03/26 03:01:44;;;;;;;;;19.00;16.00;;;;;10.87;46.83;99866.66;5074290;28;45374;-61
2022/03/26 03:04:10;;;;;;;;;19.67;18.67;;;;;10.84;46.62;99872.91;5068516;27;45512;-61
2022/03/26 03:06:36;;;;;;;;;25.67;23.33;;;;;10.82;46.63;99869.44;5074104;28;45313;-61
2022/03/26 03:09:06;;;;;;;;;20.00;18.33;;;;;10.82;46.70;99877.34;5070183;28;46064;-61
2022/03/26 03:11:32;;;;;;;;;21.67;20.33;;;;;10.81;46.64;99876.47;5074158;28;45504;-61
2022/03/26 03:13:58;;;;;;;;;20.33;19.33;;;;;10.80;46.77;99874.75;5069556;28;45431;-61
2022/03/26 03:16:24;;;;;;;;;21.00;18.67;;;;;10.80;46.65;99872.09;5073799;28;45778;-61
2022/03/26 03:18:50;;;;;;;;;24.00;21.33;;;;;10.80;46.95;99873.88;5068667;28;45537;-61
2022/03/26 03:21:16;;;;;;;;;31.00;26.33;;;;;10.76;47.13;99875.75;5074828;28;45521;-62
2022/03/26 03:23:42;;;;;;;;;27.00;24.67;;;;;10.72;47.29;99874.13;5069499;28;45551;-62
2022/03/26 03:26:07;;;;;;;;;23.00;21.00;;;;;10.71;48.31;99874.16;5074573;28;45573;-62
2022/03/26 03:28:33;;;;;;;;;28.33;26.00;;;;;10.69;48.42;99870.69;5068705;27;45670;-61
2022/03/26 03:30:58;;;;;;;;;28.33;25.67;;;;;10.65;48.36;99869.06;5089955;27;45419;-62
2022/03/26 03:33:25;;;;;;;;;17.33;17.33;;;;;10.62;48.69;99869.13;5069948;27;45456;-62
2022/03/26 03:35:50;;;;;;;;;33.33;28.67;;;;;10.61;48.99;99870.91;5069682;28;45210;-61
2022/03/26 03:38:16;;;;;;;;;27.33;23.67;;;;;10.60;49.04;99878.84;5072881;28;45989;-61
2022/03/26 03:40:41;;;;;;;;;30.33;28.67;;;;;10.60;49.00;99878.84;5072373;27;45372;-61
2022/03/26 03:43:07;;;;;;;;;29.33;25.00;;;;;10.58;49.34;99884.16;5072804;27;45660;-61
2022/03/26 03:45:33;;;;;;;;;27.00;24.33;;;;;10.58;49.37;99872.75;5071782;28;45229;-61
2022/03/26 03:47:58;;;;;;;;;32.00;23.67;;;;;10.57;49.33;99874.53;5072585;27;45394;-61
2022/03/26 03:50:24;;;;;;;;;24.00;22.00;;;;;10.56;49.14;99879.88;5073844;28;45364;-61
2022/03/26 03:52:49;;;;;;;;;27.00;24.00;;;;;10.52;48.93;99879.09;5072166;28;45478;-61
2022/03/26 03:55:15;;;;;;;;;17.00;13.67;;;;;10.51;48.35;99885.25;5066157;27;45426;-61
2022/03/26 03:57:44;;;;;;;;;22.00;22.00;;;;;10.47;47.92;99892.38;5074190;28;46421;-61
2022/03/26 04:00:11;;;;;;;;;24.67;19.67;;;;;10.43;48.97;99892.50;5067439;28;45333;-61
2022/03/26 04:02:37;;;;;;;;;32.67;28.00;;;;;10.36;48.79;99897.09;5074199;28;45334;-61
2022/03/26 04:05:03;;;;;;;;;21.00;20.67;;;;;10.29;48.17;99897.28;5089530;27;45367;-61
2022/03/26 04:07:28;;;;;;;;;24.67;23.67;;;;;10.24;47.92;99902.66;5073527;28;45470;-61
2022/03/26 04:09:54;;;;;;;;;26.00;22.67;;;;;10.22;47.61;99899.19;5068022;27;45406;-61
2022/03/26 04:12:19;;;;;;;;;20.00;17.00;;;;;10.22;47.51;99898.38;5074954;27;45752;-61
2022/03/26 04:14:45;;;;;;;;;21.00;18.67;;;;;10.19;47.37;99904.56;5068211;27;45488;-61
2022/03/26 04:17:13;;;;;;;;;28.00;21.67;;;;;10.20;48.03;99901.03;5076005;27;48256;-61
2022/03/26 04:19:39;;;;;;;;;21.33;21.00;;;;;10.19;47.46;99903.72;5067906;28;45454;-61
2022/03/26 04:22:06;;;;;;;;;25.00;23.00;;;;;10.18;47.95;99907.22;5074448;28;45407;-61
2022/03/26 04:24:32;;;;;;;;;21.00;19.67;;;;;10.15;47.87;99908.16;5066854;28;45518;-61
2022/03/26 04:26:57;;;;;;;;;22.33;18.33;;;;;10.14;47.82;99909.06;5072710;28;46123;-61
2022/03/26 04:29:22;;;;;;;;;18.67;17.67;;;;;10.13;48.22;99905.56;5067981;28;45326;-61
2022/03/26 04:31:48;;;;;;;;;25.67;24.67;;;;;10.11;48.30;99907.38;5074165;27;45445;-61
2022/03/26 04:34:13;;;;;;;;;20.33;20.00;;;;;10.09;48.26;99903.03;5068006;28;45465;-61
2022/03/26 04:36:39;;;;;;;;;24.33;22.00;;;;;10.08;48.85;99903.94;5070610;28;46443;-61
2022/03/26 04:39:05;;;;;;;;;23.00;19.00;;;;;10.10;48.64;99913.53;5068362;28;45562;-61
2022/03/26 04:41:30;;;;;;;;;23.00;22.67;;;;;10.10;48.77;99910.03;5071305;27;45415;-61
2022/03/26 04:43:56;;;;;;;;;20.00;18.00;;;;;10.10;48.88;99918.81;5070948;28;45591;-61
2022/03/26 04:46:21;;;;;;;;;19.33;18.00;;;;;10.10;49.21;99915.31;5072251;27;46327;-61
2022/03/26 04:48:46;;;;;;;;;24.67;22.00;;;;;10.09;49.10;99914.44;5069682;28;45668;-61
2022/03/26 04:51:13;;;;;;;;;23.00;22.00;;;;;10.06;49.39;99917.16;5074446;27;45518;-61
2022/03/26 04:53:39;;;;;;;;;22.67;21.00;;;;;10.06;49.87;99919.78;5071639;28;45378;-61
2022/03/26 04:56:05;;;;;;;;;24.33;21.33;;;;;10.05;50.17;99920.69;5061001;28;46062;-61
2022/03/26 04:58:30;;;;;;;;;25.67;24.67;;;;;10.04;50.29;99916.34;5072884;28;45350;-61
2022/03/26 05:00:55;;;;;;;;;30.67;25.33;;;;;10.05;50.23;99918.03;5070116;28;45409;-61
2022/03/26 05:03:21;;;;;;;;;25.67;24.33;;;;;10.04;50.10;99926.00;5073687;28;45353;-61
2022/03/26 05:05:46;;;;;;;;;29.33;25.00;;;;;10.02;50.09;99926.06;5075643;28;45766;-62
2022/03/26 05:08:12;;;;;;;;;25.00;23.00;;;;;10.00;50.22;99916.44;5073691;28;45466;-61
2022/03/26 05:10:37;;;;;;;;;26.67;24.33;;;;;9.96;49.91;99920.06;5072304;27;45457;-61
2022/03/26 05:13:02;;;;;;;;;23.00;21.33;;;;;9.93;50.40;99918.34;5075492;27;45183;-61
2022/03/26 05:15:29;;;;;;;;;28.00;24.33;;;;;9.91;50.04;99924.56;5072814;28;45441;-61
2022/03/26 05:17:56;;;;;;;;;20.67;17.67;;;;;9.84;49.84;99926.50;5075272;27;45451;-61
2022/03/26 05:20:23;;;;;;;;;25.33;22.67;;;;;9.80;49.41;99928.34;5072844;28;45392;-61
2022/03/26 05:22:50;;;;;;;;;26.00;22.33;;;;;9.76;49.67;99931.94;5075293;28;45254;-61
2022/03/26 05:25:16;;;;;;;;;24.00;21.67;;;;;9.72;49.73;99932.91;5072351;27;46143;-61
2022/03/26 05:27:52;;;;;;;;;25.00;20.67;;;;;9.71;49.29;99938.22;5076131;28;45422;-61
2022/03/26 05:30:20;;;;;;;;;23.00;21.33;;;;;9.70;49.12;99941.78;5090711;27;45351;-61
2022/03/26 05:32:45;;;;;;;;;24.67;20.67;;;;;9.68;49.06;99946.19;5073935;28;45692;-61
2022/03/26 05:35:13;;;;;;;;;27.33;20.00;;;;;9.65;49.39;99939.22;5068030;28;46020;-61
2022/03/26 05:37:49;;;;;;;;;23.33;20.33;;;;;9.64;49.67;99947.16;5075318;27;45531;-61
2022/03/26 05:40:18;;;;;;;;;26.00;22.67;;;;;9.63;50.03;99943.66;5087562;27;45447;-61
2022/03/26 05:42:45;;;;;;;;;30.33;28.00;;;;;9.63;50.72;99953.31;5074064;28;45457;-61
2022/03/26 05:45:11;;;;;;;;;33.33;30.33;;;;;9.62;51.37;99951.59;5072426;28;45436;-61
2022/03/26 05:47:40;;;;;;;;;32.00;28.33;;;;;9.61;51.85;99961.25;5076015;28;45423;-61
2022/03/26 05:50:11;;;;;;;;;33.33;29.67;;;;;9.62;52.29;99962.13;5074677;28;45459;-61
2022/03/26 05:52:37;;;;;;;;;34.33;32.67;;;;;9.61;52.36;99963.88;5075789;27;45633;-61
2022/03/26 05:55:04;;;;;;;;;32.33;29.00;;;;;9.60;52.44;99959.53;5066988;28;45480;-61
2022/03/26 05:57:29;;;;;;;;;29.33;26.00;;;;;9.60;52.46;99959.53;5076896;28;45475;-61
2022/03/26 05:59:55;;;;;;;;;35.67;32.33;;;;;9.59;52.70;99965.69;5074892;28;45428;-61
2022/03/26 06:02:21;;;;;;;;;32.00;28.67;;;;;9.57;52.93;99966.63;5076502;28;45224;-61
2022/03/26 06:04:47;;;;;;;;;30.67;27.00;;;;;9.57;52.89;99962.22;5070837;27;45487;-61
2022/03/26 06:07:12;;;;;;;;;21.33;20.67;;;;;9.57;52.95;99966.63;5076685;27;45238;-61
2022/03/26 06:09:38;;;;;;;;;35.33;30.67;;;;;9.57;53.09;99969.25;5070005;27;45407;-61
2022/03/26 06:12:06;;;;;;;;;31.67;31.00;;;;;9.59;53.10;99970.94;5076529;27;45527;-61
2022/03/26 06:14:32;;;;;;;;;26.00;20.67;;;;;9.61;52.81;99974.41;5069568;27;45531;-62
2022/03/26 06:16:57;;;;;;;;;28.33;27.33;;;;;9.65;52.87;99977.84;5073756;28;45508;-61
2022/03/26 06:19:25;;;;;;;;;31.67;29.33;;;;;9.68;52.87;99986.56;5069877;27;45419;-61
2022/03/26 06:21:50;;;;;;;;;34.67;30.33;;;;;9.70;52.88;99981.25;5076421;27;45399;-61
2022/03/26 06:24:17;;;;;;;;;29.67;28.33;;;;;9.73;51.50;99982.03;5069564;28;45993;-61
2022/03/26 06:26:44;;;;;;;;;28.67;23.00;;;;;9.76;51.26;99978.47;5075831;27;45205;-61
2022/03/26 06:29:12;;;;;;;;;22.33;20.67;;;;;9.79;50.64;99981.03;5069723;27;45387;-61
2022/03/26 06:31:37;;;;;;;;;25.00;21.67;;;;;9.82;49.74;99982.75;5075351;27;45535;-61
2022/03/26 06:34:04;;;;;;;;;23.33;21.67;;;;;9.86;49.23;99981.78;5069713;27;46025;-61
2022/03/26 06:36:31;;;;;;;;;24.00;20.67;;;;;9.90;48.94;99981.63;5071739;28;45380;-61
2022/03/26 06:38:56;;;;;;;;;23.33;22.67;;;;;9.94;48.74;99982.44;5070943;27;45354;-61
2022/03/26 06:41:22;;;;;;;;;24.00;21.00;;;;;9.97;49.16;99992.91;5072992;28;45568;-61
2022/03/26 06:43:48;;;;;;;;;24.33;23.33;;;;;10.00;49.53;99988.44;5088602;27;45410;-61
2022/03/26 06:46:13;;;;;;;;;30.00;26.00;;;;;10.05;50.08;99985.72;5072671;28;45329;-61
2022/03/26 06:48:39;;;;;;;;;36.33;32.00;;;;;10.08;51.27;99989.09;5073392;27;45412;-61
2022/03/26 06:51:06;;;;;;;;;33.67;31.67;;;;;10.13;51.61;99987.22;5075714;28;45460;-61
2022/03/26 06:53:33;;;;;;;;;36.67;32.00;;;;;10.17;51.50;99982.75;5072346;27;46233;-61
2022/03/26 06:55:59;;;;;;;;;28.33;25.33;;;;;10.19;51.39;99988.91;5066870;28;45454;-61
2022/03/26 06:58:25;;;;;;;;;42.00;34.00;;;;;10.20;51.57;99989.75;5073413;27;45453;-62
2022/03/26 07:00:51;;;;;;;;;35.00;29.33;;;;;10.19;51.30;99983.63;5068351;27;45369;-61
2022/03/26 07:03:18;;;;;;;;;33.67;31.00;;;;;10.22;51.34;99987.97;5071662;28;45453;-61
2022/03/26 07:05:44;;;;;;;;;31.33;25.67;;;;;10.26;51.37;99992.22;5061875;28;45264;-61
2022/03/26 07:08:09;;;;;;;;;32.00;30.00;;;;;10.31;51.36;99985.09;5068454;28;45400;-61
2022/03/26 07:10:36;;;;;;;;;38.00;32.67;;;;;10.37;51.25;99990.22;5070248;28;45565;-61
2022/03/26 07:13:03;;;;;;;;;35.00;29.00;;;;;10.37;51.36;99984.94;5073035;27;45434;-61
2022/03/26 07:15:31;;;;;;;;;38.00;35.00;;;;;10.38;51.34;99989.31;5070240;27;45558;-61
2022/03/26 07:17:57;;;;;;;;;42.00;35.00;;;;;10.41;51.25;99986.56;5071054;28;45411;-61
2022/03/26 07:20:22;;;;;;;;;38.33;34.00;;;;;10.47;50.65;99986.41;5068039;28;45487;-61
2022/03/26 07:22:48;;;;;;;;;35.00;33.33;;;;;10.50;50.92;99986.34;5073154;28;45329;-61
2022/03/26 07:25:13;;;;;;;;;43.67;34.67;;;;;10.54;50.92;99988.00;5070577;28;45379;-61
2022/03/26 07:27:39;;;;;;;;;34.00;31.33;;;;;10.56;51.26;99986.16;5074199;27;45737;-61
2022/03/26 07:30:06;;;;;;;;;32.00;30.67;;;;;10.58;50.98;99989.63;5068844;27;45296;-62
2022/03/26 07:32:31;;;;;;;;;33.33;32.33;;;;;10.61;51.01;99991.31;5074272;28;46697;-64
2022/03/26 07:34:57;;;;;;;;;37.00;32.33;;;;;10.65;50.95;99993.84;5066295;27;45502;-62
2022/03/26 07:37:22;;;;;;;;;37.33;32.00;;;;;10.68;50.94;99987.63;5073658;28;45455;-62
2022/03/26 07:39:48;;;;;;;;;39.00;33.00;;;;;10.71;51.02;99982.28;5068766;27;45414;-60
2022/03/26 07:42:13;;;;;;;;;33.67;29.33;;;;;10.75;51.00;99992.69;5073079;28;46496;-62
2022/03/26 07:44:39;;;;;;;;;33.67;31.67;;;;;10.78;50.95;99989.09;5071374;27;45381;-62
2022/03/26 07:47:06;;;;;;;;;40.67;33.67;;;;;10.83;51.06;99993.38;5072596;27;45356;-62
2022/03/26 07:49:32;;;;;;;;;39.67;33.67;;;;;10.87;50.82;99988.88;5070514;28;45602;-62
2022/03/26 07:51:57;;;;;;;;;35.33;31.00;;;;;10.94;50.83;99997.47;5068746;27;47323;-62
2022/03/26 07:54:23;;;;;;;;;34.00;32.00;;;;;11.01;50.83;99997.28;5066966;28;45438;-62
2022/03/26 07:56:49;;;;;;;;;40.00;35.67;;;;;11.06;50.70;99995.34;5072773;27;45497;-62
2022/03/26 07:59:15;;;;;;;;;37.33;34.67;;;;;11.13;50.46;99994.28;5072918;27;45602;-62
2022/03/26 08:01:40;;;;;;;;;40.33;34.33;;;;;11.19;50.49;99995.88;5068465;27;46004;-62
2022/03/26 08:04:07;;;;;;;;;43.67;35.67;;;;;11.25;50.24;100000.97;5059792;27;45404;-62
2022/03/26 08:06:33;;;;;;;;;38.00;30.67;;;;;11.31;49.87;99992.88;5073381;28;45364;-62
2022/03/26 08:09:00;;;;;;;;;48.33;38.00;;;;;11.36;49.84;99992.75;5065138;27;45424;-62
2022/03/26 08:11:25;;;;;;;;;41.67;35.00;;;;;11.43;49.89;99995.16;5066512;28;45365;-62
2022/03/26 08:13:51;;;;;;;;;37.33;33.33;;;;;11.50;49.73;99996.72;5060020;28;45561;-62
2022/03/26 08:16:16;;;;;;;;;30.00;28.33;;;;;11.56;49.32;99990.41;5073124;28;45370;-62
2022/03/26 08:18:44;;;;;;;;;38.67;34.00;;;;;11.63;49.10;99991.06;5066314;28;45533;-62
2022/03/26 08:21:10;;;;;;;;;35.33;30.67;;;;;11.68;49.05;99986.50;5072661;28;46319;-62
2022/03/26 08:23:37;;;;;;;;;39.67;32.67;;;;;11.77;48.98;99992.41;5073520;27;45456;-62
2022/03/26 08:28:49;;;;;;;;;38.67;34.33;;;;;11.92;48.59;99987.53;5070512;28;45431;-61
2022/03/26 08:31:15;;;;;;;;;31.00;30.00;;;;;12.03;48.27;99986.31;5071031;27;45603;-66
2022/03/26 08:33:41;;;;;;;;;40.33;31.33;;;;;12.17;47.92;99989.34;5071547;27;45416;-62
2022/03/26 08:36:07;;;;;;;;;37.33;32.00;;;;;12.26;47.80;99984.66;5068769;28;45447;-62
2022/03/26 08:38:34;;;;;;;;;42.00;32.67;;;;;12.33;47.50;99987.06;5073197;27;45407;-62
2022/03/26 08:41:00;;;;;;;;;45.67;34.00;;;;;12.40;47.79;99987.75;5075281;28;45554;-62
2022/03/26 08:43:25;;;;;;;;;37.67;33.67;;;;;12.45;47.57;99985.78;5075092;28;45471;-62
2022/03/26 08:45:51;;;;;;;;;40.00;34.00;;;;;12.50;47.60;99981.22;5076470;27;45381;-62
2022/03/26 08:48:16;;;;;;;;;40.67;33.00;;;;;12.57;47.27;99975.66;5055683;28;45601;-62
2022/03/26 08:50:43;;;;;;;;;34.67;30.33;;;;;12.67;47.06;99972.69;5073152;28;45781;-62
2022/03/26 08:53:10;;;;;;;;;42.00;35.67;;;;;12.74;46.89;99972.41;5063139;27;45611;-62
2022/03/26 08:55:35;;;;;;;;;37.67;32.00;;;;;12.79;46.61;99973.13;5075016;27;45374;-63
2022/03/26 08:58:01;;;;;;;;;31.33;28.00;;;;;12.88;46.73;99969.31;5075110;28;45517;-62
2022/03/26 09:00:27;;;;;;;;;44.00;31.00;;;;;12.97;46.09;99961.00;5063542;28;47349;-62
2022/03/26 09:02:54;;;;;;;;;32.33;30.00;;;;;13.03;46.06;99952.00;5074422;28;45329;-62
2022/03/26 09:05:20;;;;;;;;;33.33;31.67;;;;;13.08;46.17;99958.81;5085320;27;45367;-62
2022/03/26 09:07:45;;;;;;;;;36.33;29.33;;;;;13.17;45.78;99961.19;5072172;28;45441;-62
2022/03/26 09:10:11;;;;;;;;;37.00;31.67;;;;;13.26;45.62;99952.88;5070270;28;47941;-62
2022/03/26 09:12:37;;;;;;;;;26.33;26.33;;;;;13.36;45.12;99949.91;5075341;28;45502;-63
2022/03/26 09:15:03;;;;;;;;;31.00;30.00;;;;;13.46;45.08;99952.13;5070030;28;45426;-63
2022/03/26 09:17:29;;;;;;;;;27.67;24.67;;;;;13.56;44.64;99939.41;5077596;27;45432;-63
2022/03/26 09:19:54;;;;;;;;;31.00;27.33;;;;;13.64;44.21;99939.94;5075981;27;45461;-64
2022/03/26 09:22:20;;;;;;;;;28.33;27.00;;;;;13.72;43.92;99940.53;5074708;27;45452;-63
2022/03/26 09:24:45;;;;;;;;;27.00;19.67;;;;;13.84;43.36;99941.81;5072214;27;45494;-63
2022/03/26 09:27:11;;;;;;;;;26.33;23.00;;;;;13.94;42.99;99933.41;5072946;27;45700;-63
2022/03/26 09:29:36;;;;;;;;;27.00;25.33;;;;;14.05;42.90;99934.78;5075430;27;45532;-63
2022/03/26 09:32:03;;;;;;;;;27.67;22.33;;;;;14.13;42.49;99930.88;5075660;27;45451;-63
2022/03/26 09:34:29;;;;;;;;;30.00;24.67;;;;;14.21;42.56;99925.25;5065412;28;45562;-63
2022/03/26 09:36:54;;;;;;;;;22.67;22.33;;;;;14.29;42.28;99924.00;5069869;28;45368;-64
2022/03/26 09:39:20;;;;;;;;;31.00;24.33;;;;;14.37;41.58;99918.38;5071439;27;46681;-63
2022/03/26 09:41:49;;;;;;;;;25.67;24.00;;;;;14.45;41.48;99916.28;5088965;27;45518;-62
2022/03/26 09:44:15;;;;;;;;;28.33;25.00;;;;;14.53;41.14;99919.47;5072140;27;45500;-62
2022/03/26 09:46:40;;;;;;;;;23.33;22.33;;;;;14.61;40.35;99917.31;5060602;27;45403;-62
2022/03/26 09:49:06;;;;;;;;;23.00;22.67;;;;;14.69;39.89;99917.00;5073328;27;46464;-63
2022/03/26 09:51:34;;;;;;;;;28.00;25.67;;;;;14.77;39.86;99914.84;5074747;27;45426;-64
2022/03/26 09:53:59;;;;;;;;;33.00;31.00;;;;;14.85;40.31;99910.09;5087386;27;45357;-64
2022/03/26 09:56:28;;;;;;;;;28.00;24.33;;;;;14.93;39.60;99907.94;5071261;28;45622;-64
2022/03/26 09:58:54;;;;;;;;;19.33;17.67;;;;;15.02;38.47;99907.53;5070485;27;46475;-63
2022/03/26 10:01:20;;;;;;;;;22.33;22.00;;;;;15.12;38.06;99902.63;5075353;27;45419;-63
2022/03/26 10:04:13;;;;;;;;;19.67;19.33;;;;;15.20;37.35;99899.66;5067346;27;45469;-63
2022/03/26 10:06:55;;;;;;;;;25.33;21.33;;;;;15.30;37.28;99900.94;5070153;28;45710;-64
2022/03/26 10:09:25;;;;;;;;;22.33;20.00;;;;;15.38;37.35;99892.59;5066413;28;45440;-64
2022/03/26 10:12:05;;;;;;;;;18.33;15.67;;;;;15.48;37.20;99891.22;5070598;28;45852;-64
2022/03/26 10:14:47;;;;;;;;;25.33;21.33;;;;;15.57;36.96;99890.84;5084134;27;45399;-64
2022/03/26 10:17:24;;;;;;;;;28.67;24.00;;;;;15.64;37.04;99886.94;5070471;28;45551;-64
2022/03/26 10:19:58;;;;;;;;;22.00;20.00;;;;;15.73;37.03;99881.19;5069232;28;47501;-64
2022/03/26 10:22:29;;;;;;;;;18.33;18.00;;;;;15.81;35.13;99881.66;5101484;27;45520;-64
2022/03/26 10:24:57;;;;;;;;;18.33;16.00;;;;;15.90;35.52;99873.22;5063852;28;45467;-64
2022/03/26 10:27:22;;;;;;;;;21.67;18.00;;;;;16.00;35.86;99876.28;5060353;28;45684;-64
2022/03/26 10:29:59;;;;;;;;;22.33;20.00;;;;;16.08;35.65;99863.47;5064383;28;46795;-64
2022/03/26 10:32:39;;;;;;;;;24.67;21.67;;;;;16.17;35.76;99860.31;5058110;28;45367;-63
2022/03/26 10:35:26;;;;;;;;;21.00;18.50;;;;;16.28;35.49;99857.09;5064812;28;45489;-64
2022/03/26 10:38:03;;;;;;;;;16.25;14.75;;;;;16.38;35.10;99848.59;5062389;28;45357;-64
2022/03/26 10:40:36;;;;;;;;;13.25;13.25;;;;;16.49;33.78;99853.34;5071095;28;47611;-64
2022/03/26 10:43:05;;;;;;;;;19.25;16.25;;;;;16.57;33.23;99848.47;5071369;28;45341;-65
2022/03/26 10:45:33;;;;;;;;;17.75;14.75;;;;;16.64;33.31;99846.38;5074035;27;45400;-64
2022/03/26 10:48:00;;;;;;;;;14.75;11.75;;;;;16.73;33.09;99848.56;5072911;28;45399;-63
2022/03/26 10:50:31;;;;;;;;;16.25;16.25;;;;;16.83;32.86;99843.56;5065890;28;46413;-64
2022/03/26 10:52:56;;;;;;;;;20.50;16.75;;;;;16.90;32.53;99837.84;5073283;28;45566;-64
2022/03/26 10:55:24;;;;;;;;;22.50;17.25;;;;;17.01;32.15;99837.25;5073680;28;45408;-64
2022/03/26 10:57:50;;;;;;;;;19.00;12.67;;;;;17.10;32.11;99828.72;5072983;28;45448;-64
2022/03/26 11:00:17;;;;;;;;;14.00;13.75;;;;;17.18;32.22;99823.00;5080774;27;46621;-64
2022/03/26 11:02:46;;;;;;;;;18.25;15.00;;;;;17.23;32.14;99824.47;5070045;27;45553;-67
2022/03/26 11:05:12;;;;;;;;;12.25;9.25;;;;;17.30;32.84;99822.28;5069441;27;45594;-64
2022/03/26 11:07:41;;;;;;;;;23.50;16.25;;;;;17.36;32.61;99814.81;5070363;28;45574;-64
2022/03/26 11:10:12;;;;;;;;;16.25;15.25;;;;;17.42;32.06;99803.81;5068109;28;46194;-64
2022/03/26 11:12:44;;;;;;;;;14.50;12.50;;;;;17.51;31.64;99805.09;5061727;28;45539;-64
2022/03/26 11:15:23;;;;;;;;;15.50;13.50;;;;;17.60;32.09;99793.88;5098165;27;45354;-64
2022/03/26 11:18:24;;;;;;;;;18.25;16.75;;;;;17.69;32.43;99792.53;5063384;28;45445;-64
2022/03/26 11:21:31;;;;;;;;;16.25;12.75;;;;;17.77;31.97;99791.13;5067244;28;46233;-64